Stangelville, Wisconsin
Current Conditions -  °F | °C
As of 1:11 PM on Friday 24 Oct 2014 (Local Time) from KGRB Reporting Station
Haze Haze  
Wind Chill: 51°   Ceiling: 500
Heat Index: 51°   Visibility: 5mi
Dew Point: 49°   Wind: 9mph
Humidity: 92%   Direction: 230°SW
Pressure: 29.98"   Gusts: NA
Location:  44.363°N, 87.8227°W
Report Text: KGRB 241811Z 23008KT 5SM BR OVC005 11/09 A2998 RMK AO2 T01060094
Loading
Personal Weather Stations






























Interactive Weather Map
Tropical Storm Tracking
New forecast layout! Learn more

10-Day Weather Forecast

Advertisements
Track Severe Weather on mobile